Time;durP1;ratioP1;P1;durP2;ratioP2;P2;SDS_P1;SDS_P2;PMS_P1;PMS_P2;Temp;Humidity;BMP_temperature;BMP_pressure;BME280_temperature;BME280_humidity;BME280_pressure;Samples;Min_cycle;Max_cycle;Signal;HPM_P1;HPM_P2
2022/06/21 00:02:56;;;;;;;1.90;1.80;;;;;;;20.69;47.68;98718.50;6973686;28;20268;-77
2022/06/21 00:06:20;;;;;;;2.93;2.10;;;;;;;21.01;47.89;98725.41;6972253;28;20253;-77
2022/06/21 00:09:42;;;;;;;1.70;1.60;;;;;;;21.04;48.28;98735.00;6972957;28;20213;-77
2022/06/21 00:13:07;;;;;;;1.60;1.50;;;;;;;21.25;48.36;98727.31;6973562;28;20308;-77
2022/06/21 00:16:31;;;;;;;2.37;1.70;;;;;;;20.40;50.85;98733.78;6973342;28;20294;-77
2022/06/21 00:19:53;;;;;;;3.37;1.93;;;;;;;20.12;52.36;98728.75;6972344;28;20206;-78
2022/06/21 00:23:17;;;;;;;2.53;2.07;;;;;;;21.00;49.95;98722.94;6972992;28;20234;-78
2022/06/21 00:26:39;;;;;;;2.87;1.90;;;;;;;20.72;49.96;98710.56;6973356;28;20209;-77
2022/06/21 00:30:00;;;;;;;3.20;2.00;;;;;;;20.87;49.75;98728.94;6972599;28;20311;-77
2022/06/21 00:33:24;;;;;;;3.00;1.93;;;;;;;20.61;50.56;98719.03;6972878;28;20668;-77
2022/06/21 00:36:47;;;;;;;3.17;2.27;;;;;;;20.28;51.34;98687.44;6972957;28;20295;-77
2022/06/21 00:40:22;;;;;;;2.33;1.80;;;;;;;20.75;50.39;98722.91;6970917;28;20198;-77
2022/06/21 00:43:46;;;;;;;3.13;2.13;;;;;;;20.11;51.97;98735.31;6972194;28;20242;-78
2022/06/21 00:47:15;;;;;;;1.87;1.63;;;;;;;20.05;52.01;98736.34;6972767;28;20203;-77
2022/06/21 00:50:40;;;;;;;2.30;2.10;;;;;;;20.15;51.67;98736.41;6972201;28;20207;-77
2022/06/21 00:54:07;;;;;;;2.50;2.30;;;;;;;19.89;53.02;98712.75;6973016;28;20189;-77
2022/06/21 00:57:36;;;;;;;3.93;2.40;;;;;;;20.03;53.05;98717.47;6972094;28;20253;-78
2022/06/21 01:01:03;;;;;;;2.20;2.00;;;;;;;19.93;53.23;98711.94;6972439;28;20230;-78
2022/06/21 01:04:30;;;;;;;2.97;1.90;;;;;;;19.64;53.63;98683.34;6976650;28;20745;-77
2022/06/21 01:07:55;;;;;;;1.90;1.80;;;;;;;20.04;52.21;98697.19;6977296;28;20627;-77
2022/06/21 01:11:19;;;;;;;2.43;2.23;;;;;;;19.43;52.92;98698.00;6977966;28;20230;-77
2022/06/21 01:14:44;;;;;;;2.10;2.00;;;;;;;19.13;54.81;98707.88;6977176;28;20236;-77
2022/06/21 01:18:08;;;;;;;3.37;2.07;;;;;;;19.09;54.53;98709.47;6976683;28;20210;-77
2022/06/21 01:21:30;;;;;;;2.30;2.07;;;;;;;19.77;52.71;98680.13;6977120;28;20249;-78
2022/06/21 01:25:00;;;;;;;2.40;2.20;;;;;;;19.73;53.50;98709.09;6977025;28;20234;-77
2022/06/21 01:28:23;;;;;;;3.60;2.27;;;;;;;19.46;54.40;98685.72;6976478;28;20242;-77
2022/06/21 01:31:45;;;;;;;2.43;2.10;;;;;;;19.48;53.97;98683.53;6977329;28;20232;-78
2022/06/21 01:35:11;;;;;;;2.57;2.37;;;;;;;19.24;53.65;98694.06;6976937;28;20288;-78
2022/06/21 01:38:35;;;;;;;2.57;2.37;;;;;;;18.90;54.20;98700.88;6976329;28;20212;-78
2022/06/21 01:42:01;;;;;;;4.73;2.70;;;;;;;19.11;54.15;98679.97;6976516;28;20268;-78
2022/06/21 01:45:26;;;;;;;3.30;2.30;;;;;;;19.08;54.78;98666.81;6976557;28;20268;-77
2022/06/21 01:48:50;;;;;;;4.43;2.13;;;;;;;19.16;54.45;98674.56;6975937;28;20325;-78
2022/06/21 01:52:13;;;;;;;2.20;2.00;;;;;;;19.33;53.79;98654.19;6976631;28;20730;-78
2022/06/21 01:55:40;;;;;;;4.17;2.20;;;;;;;19.14;54.15;98652.94;6975438;28;20198;-77
2022/06/21 01:59:06;;;;;;;2.93;1.87;;;;;;;19.31;53.66;98647.34;6975367;28;20199;-77
2022/06/21 02:02:32;;;;;;;4.27;2.07;;;;;;;19.19;53.85;98641.22;6976031;28;20218;-77
2022/06/21 02:05:56;;;;;;;3.53;2.03;;;;;;;19.00;54.19;98621.72;6975491;28;20195;-77
2022/06/21 02:09:20;;;;;;;2.40;2.20;;;;;;;18.72;54.81;98626.66;6975550;28;20240;-77
2022/06/21 02:12:44;;;;;;;2.30;2.20;;;;;;;18.63;55.10;98609.94;6975867;28;20305;-77
2022/06/21 02:16:09;;;;;;;2.40;2.20;;;;;;;18.13;56.06;98633.19;6975054;28;20206;-77
2022/06/21 02:19:36;;;;;;;2.23;2.13;;;;;;;18.24;56.63;98638.50;6975788;28;20214;-77
2022/06/21 02:22:58;;;;;;;3.83;2.13;;;;;;;17.51;58.15;98646.38;6974506;28;20705;-77
2022/06/21 02:26:20;;;;;;;2.47;2.27;;;;;;;18.08;57.01;98631.25;6975353;28;20206;-77
2022/06/21 02:29:43;;;;;;;2.20;2.00;;;;;;;18.33;55.82;98617.88;6974938;28;20203;-77
2022/06/21 02:33:07;;;;;;;3.17;2.33;;;;;;;18.81;54.37;98617.72;6975282;28;20719;-77
2022/06/21 02:36:33;;;;;;;2.97;2.40;;;;;;;18.14;55.33;98626.66;6975093;28;20289;-77
2022/06/21 02:39:56;;;;;;;2.10;1.93;;;;;;;18.20;55.24;98610.09;6975062;28;20287;-77
2022/06/21 02:43:22;;;;;;;3.77;2.07;;;;;;;18.16;55.94;98616.31;6972173;28;20233;-78
2022/06/21 02:46:47;;;;;;;2.57;2.13;;;;;;;18.52;54.55;98602.75;6979972;28;20183;-77
2022/06/21 02:50:25;;;;;;;2.40;2.20;;;;;;;18.52;54.66;98623.78;6976576;28;20237;-77
2022/06/21 02:53:54;;;;;;;2.40;2.20;;;;;;;18.82;52.53;98624.03;6976465;28;20239;-77
2022/06/21 02:57:20;;;;;;;2.23;2.03;;;;;;;18.56;53.36;98612.06;6976554;28;20698;-78
2022/06/21 03:00:43;;;;;;;3.47;2.30;;;;;;;18.51;52.98;98597.56;6977471;28;20264;-78
2022/06/21 03:04:05;;;;;;;2.67;1.93;;;;;;;18.85;52.43;98628.94;6976868;28;20643;-77
2022/06/21 03:07:32;;;;;;;2.17;2.07;;;;;;;18.30;53.62;98633.91;6977082;28;20284;-77
2022/06/21 03:10:54;;;;;;;3.83;2.43;;;;;;;18.56;52.71;98627.63;6977159;28;20245;-78
2022/06/21 03:14:18;;;;;;;2.80;2.10;;;;;;;18.58;52.10;98617.28;6975776;28;20198;-78
2022/06/21 03:17:42;;;;;;;2.33;2.20;;;;;;;17.91;53.38;98592.31;6975244;28;20242;-77
2022/06/21 03:21:06;;;;;;;2.03;1.83;;;;;;;18.50;52.15;98587.72;6975514;28;20226;-78
2022/06/21 03:24:27;;;;;;;2.53;2.03;;;;;;;18.30;53.29;98576.59;6975100;28;20325;-77
2022/06/21 03:27:53;;;;;;;2.77;2.43;;;;;;;18.68;52.49;98590.03;6974080;28;20257;-77
2022/06/21 03:31:18;;;;;;;3.00;2.67;;;;;;;18.75;52.05;98588.72;6975510;28;20245;-78
2022/06/21 03:34:39;;;;;;;2.60;2.13;;;;;;;18.82;51.44;98602.97;6975645;28;20340;-77
2022/06/21 03:38:02;;;;;;;2.40;2.10;;;;;;;18.79;51.06;98597.22;6974702;28;20354;-78
2022/06/21 03:45:08;;;;;;;3.23;2.03;;;;;;;18.63;50.35;98584.56;6975180;28;20234;-77
2022/06/21 03:48:33;;;;;;;3.07;2.30;;;;;;;18.84;50.95;98586.34;6974557;28;20336;-78
2022/06/21 03:51:55;;;;;;;3.53;2.00;;;;;;;18.90;49.53;98596.22;6975395;28;20265;-78
2022/06/21 03:55:27;;;;;;;2.50;2.23;;;;;;;18.85;48.25;98580.63;6974757;28;20202;-79
2022/06/21 03:58:56;;;;;;;2.53;2.27;;;;;;;19.19;48.62;98598.31;6974717;28;20650;-76
2022/06/21 04:02:23;;;;;;;3.00;2.47;;;;;;;18.71;48.14;98582.16;6975099;28;20257;-79
2022/06/21 04:05:49;;;;;;;3.70;2.13;;;;;;;19.52;46.27;98597.13;6974238;28;20806;-79
2022/06/21 04:09:17;;;;;;;3.07;1.97;;;;;;;19.58;46.93;98602.34;6973557;28;20237;-79
2022/06/21 04:12:42;;;;;;;4.53;2.63;;;;;;;20.09;46.09;98597.88;6974582;28;20253;-79
2022/06/21 04:16:11;;;;;;;3.57;2.27;;;;;;;19.66;47.42;98588.19;6975077;28;20194;-77
2022/06/21 04:19:38;;;;;;;6.03;2.50;;;;;;;19.72;45.59;98592.56;6973425;28;20699;-78
2022/06/21 04:23:04;;;;;;;6.70;2.70;;;;;;;20.03;44.28;98574.28;6957762;28;20714;-78
2022/06/21 04:26:30;;;;;;;2.43;2.23;;;;;;;20.21;43.45;98574.63;6971260;28;20571;-78
2022/06/21 04:29:56;;;;;;;2.97;2.27;;;;;;;20.35;42.84;98553.81;6971924;28;20202;-78
2022/06/21 04:33:20;;;;;;;2.40;2.17;;;;;;;20.16;43.38;98568.34;6976288;28;20220;-78
2022/06/21 04:36:46;;;;;;;3.67;2.30;;;;;;;20.42;41.96;98590.00;6999058;28;20198;-78
2022/06/21 04:40:12;;;;;;;2.97;2.13;;;;;;;20.37;41.21;98578.22;6960225;28;20234;-78
2022/06/21 04:43:39;;;;;;;3.03;2.53;;;;;;;19.51;41.73;98588.09;6962421;28;20712;-78
2022/06/21 04:47:06;;;;;;;3.53;2.57;;;;;;;19.48;43.27;98579.59;6976559;28;20214;-78
2022/06/21 04:50:31;;;;;;;2.83;2.23;;;;;;;20.22;41.78;98576.28;6978789;28;20227;-78
2022/06/21 04:53:56;;;;;;;4.37;2.43;;;;;;;20.50;40.82;98575.75;6978381;28;20332;-75
2022/06/21 04:57:20;;;;;;;3.97;2.20;;;;;;;20.77;40.54;98559.03;6975328;28;20238;-78
2022/06/21 05:00:41;;;;;;;3.13;2.20;;;;;;;21.52;39.51;98543.19;6976994;28;20694;-77
2022/06/21 05:04:07;;;;;;;5.00;1.97;;;;;;;21.79;38.47;98558.19;6972288;28;20411;-77
2022/06/21 05:07:32;;;;;;;3.67;2.33;;;;;;;22.22;37.93;98562.00;6974489;28;20328;-78
2022/06/21 05:10:57;;;;;;;2.80;2.20;;;;;;;22.15;37.67;98559.59;6972709;28;20302;-76
2022/06/21 05:14:20;;;;;;;2.63;1.80;;;;;;;22.41;37.19;98563.78;6974498;28;20197;-75
2022/06/21 05:17:44;;;;;;;4.50;2.30;;;;;;;21.85;37.77;98576.28;6969498;28;20246;-76
2022/06/21 05:21:09;;;;;;;5.33;2.30;;;;;;;21.38;38.25;98569.59;6972256;28;20228;-76
2022/06/21 05:24:30;;;;;;;5.63;2.20;;;;;;;22.12;37.92;98567.59;6970098;28;20232;-76
2022/06/21 05:27:58;;;;;;;4.43;2.50;;;;;;;21.98;37.62;98577.56;6965235;28;20291;-77
2022/06/21 05:31:23;;;;;;;4.13;1.90;;;;;;;21.90;39.58;98572.66;6974927;28;20257;-76
2022/06/21 05:34:48;;;;;;;3.60;2.17;;;;;;;21.28;39.50;98575.94;6977196;28;20228;-77
2022/06/21 05:38:13;;;;;;;6.67;2.93;;;;;;;20.58;40.70;98577.94;6975859;28;20191;-77
2022/06/21 05:41:40;;;;;;;5.67;2.70;;;;;;;21.64;39.87;98571.94;6966905;28;20683;-77
2022/06/21 05:45:08;;;;;;;4.13;2.53;;;;;;;21.80;38.13;98572.72;6969186;28;20224;-77
2022/06/21 05:48:32;;;;;;;2.17;1.90;;;;;;;21.99;38.39;98574.53;6956806;28;20207;-77
2022/06/21 05:51:57;;;;;;;2.53;2.10;;;;;;;22.74;36.68;98570.41;6967813;28;20832;-77
2022/06/21 05:55:21;;;;;;;2.13;1.93;;;;;;;22.88;36.15;98569.47;6973518;28;20200;-77
2022/06/21 05:58:46;;;;;;;2.10;1.93;;;;;;;22.97;36.87;98564.97;6967309;28;20249;-77
2022/06/21 06:02:13;;;;;;;3.90;1.90;;;;;;;23.35;35.89;98564.03;6966314;28;20225;-78
2022/06/21 06:05:35;;;;;;;3.13;1.83;;;;;;;24.25;33.92;98570.28;6969985;28;20319;-78
2022/06/21 06:08:59;;;;;;;4.23;2.40;;;;;;;24.09;34.41;98566.94;6973976;28;20205;-77
2022/06/21 06:12:23;;;;;;;3.23;1.93;;;;;;;23.67;34.30;98577.94;6974571;28;20232;-78
2022/06/21 06:15:48;;;;;;;3.40;2.20;;;;;;;23.65;34.91;98585.69;6974306;28;20224;-78
2022/06/21 06:19:13;;;;;;;4.40;2.47;;;;;;;23.02;36.04;98584.16;6970790;28;20230;-77
2022/06/21 06:22:39;;;;;;;2.70;1.87;;;;;;;22.87;35.23;98562.31;6975088;28;20229;-78
2022/06/21 06:26:03;;;;;;;2.10;1.90;;;;;;;23.44;35.70;98587.06;6976712;28;20220;-78
2022/06/21 06:29:30;;;;;;;3.73;1.90;;;;;;;24.12;33.40;98585.63;6975290;28;20210;-77
2022/06/21 06:32:58;;;;;;;2.60;1.90;;;;;;;24.57;32.66;98584.13;6976835;28;20287;-78
2022/06/21 06:36:24;;;;;;;2.73;1.60;;;;;;;24.78;33.26;98585.44;6976668;28;20189;-77
2022/06/21 06:40:16;;;;;;;4.40;1.80;;;;;;;25.07;31.58;98575.78;6979342;28;20189;-79
2022/06/21 06:43:45;;;;;;;2.83;1.80;;;;;;;25.81;31.06;98580.97;6989718;28;20235;-77
2022/06/21 06:47:12;;;;;;;2.90;1.80;;;;;;;25.12;31.49;98588.69;6993834;28;20346;-78
2022/06/21 06:50:37;;;;;;;6.03;2.10;;;;;;;25.43;31.56;98560.22;6974332;28;20239;-77
2022/06/21 06:54:00;;;;;;;4.10;1.87;;;;;;;25.73;30.54;98567.06;6964517;28;20208;-77
2022/06/21 06:57:27;;;;;;;3.53;2.10;;;;;;;24.79;31.16;98568.56;6948509;28;20246;-78
2022/06/21 07:00:53;;;;;;;2.90;1.90;;;;;;;23.87;32.85;98583.22;6961642;28;20250;-77
2022/06/21 07:04:16;;;;;;;2.17;1.97;;;;;;;23.01;34.40;98554.22;6949610;28;20235;-77
2022/06/21 07:07:43;;;;;;;3.53;2.23;;;;;;;23.37;33.88;98578.31;6964004;28;20200;-77
2022/06/21 07:11:12;;;;;;;2.47;1.80;;;;;;;24.65;33.75;98572.44;6976672;28;20263;-78
2022/06/21 07:14:35;;;;;;;2.67;1.60;;;;;;;25.49;30.92;98574.75;6975989;28;20649;-76
2022/06/21 07:17:58;;;;;;;3.30;1.87;;;;;;;26.28;31.38;98577.72;6974981;28;20202;-79
2022/06/21 07:21:20;;;;;;;3.67;2.00;;;;;;;24.83;31.96;98574.31;6968746;28;20230;-76
2022/06/21 07:24:47;;;;;;;2.70;1.83;;;;;;;23.74;33.01;98561.06;6947914;28;20630;-76
2022/06/21 07:28:14;;;;;;;2.17;1.83;;;;;;;25.35;31.33;98579.44;6966837;28;20236;-76
2022/06/21 07:31:38;;;;;;;2.50;2.03;;;;;;;23.55;33.75;98593.25;6972555;28;20230;-76
2022/06/21 07:35:04;;;;;;;2.53;1.57;;;;;;;25.43;31.73;98593.34;6968909;28;20260;-75
2022/06/21 07:38:29;;;;;;;5.20;1.90;;;;;;;26.74;30.45;98578.28;6962482;28;20911;-77
2022/06/21 07:41:55;;;;;;;3.20;1.90;;;;;;;27.82;28.64;98602.50;6966055;28;20226;-77
2022/06/21 07:45:20;;;;;;;3.20;2.03;;;;;;;27.50;28.51;98589.00;6974334;28;20230;-77
2022/06/21 07:48:48;;;;;;;5.70;1.90;;;;;;;25.05;31.63;98594.59;6947117;28;20197;-77
2022/06/21 07:52:12;;;;;;;3.13;1.80;;;;;;;26.06;30.78;98583.19;6954875;28;20222;-76
2022/06/21 07:55:38;;;;;;;3.10;1.87;;;;;;;26.52;29.78;98574.66;6958222;28;20202;-77
2022/06/21 07:59:03;;;;;;;2.10;1.83;;;;;;;25.37;31.62;98575.25;6973927;28;20256;-76
2022/06/21 08:09:55;;;;;;;3.33;1.80;;;;;;;26.21;31.82;98540.59;6953228;28;20231;-77
2022/06/21 08:13:17;;;;;;;2.30;2.10;;;;;;;27.03;29.25;98539.91;6944465;28;20353;-76
2022/06/21 08:16:44;;;;;;;2.13;1.80;;;;;;;25.72;31.49;98546.91;6970646;28;20204;-77
2022/06/21 08:20:10;;;;;;;3.03;1.77;;;;;;;24.56;33.93;98530.06;6946295;28;20207;-76
2022/06/21 08:23:36;;;;;;;2.00;1.73;;;;;;;25.09;33.54;98498.25;6956366;28;20272;-76
2022/06/21 08:27:06;;;;;;;3.77;2.03;;;;;;;24.57;34.08;98518.78;6973820;28;20226;-76
2022/06/21 08:30:31;;;;;;;2.83;2.00;;;;;;;25.83;32.94;98517.13;6974137;28;20656;-76
2022/06/21 08:33:55;;;;;;;4.50;2.20;;;;;;;25.37;32.97;98524.75;6954970;28;20227;-76
2022/06/21 08:37:24;;;;;;;2.90;1.97;;;;;;;25.36;34.06;98509.31;6946872;28;20267;-77
2022/06/21 08:41:07;;;;;;;3.10;2.00;;;;;;;25.87;33.44;98513.44;6949692;28;20202;-76
2022/06/21 08:44:50;;;;;;;1.97;1.80;;;;;;;25.88;32.72;98508.69;6975665;28;20602;-76
2022/06/21 08:48:45;;;;;;;2.10;1.90;;;;;;;26.12;32.32;98509.31;6973323;28;20210;-76
2022/06/21 08:52:28;;;;;;;5.30;2.50;;;;;;;26.37;32.16;98515.00;6973544;28;20227;-76
2022/06/21 08:55:54;;;;;;;3.17;2.23;;;;;;;25.69;32.45;98519.91;6974015;28;20205;-77
2022/06/21 08:59:22;;;;;;;5.33;3.03;;;;;;;25.85;34.08;98520.38;6974011;28;20202;-78
2022/06/21 09:03:07;;;;;;;3.77;2.10;;;;;;;26.27;32.19;98523.56;6957237;28;20234;-76
2022/06/21 09:06:38;;;;;;;3.87;2.00;;;;;;;26.65;32.20;98519.31;6946520;28;20260;-77
2022/06/21 09:10:09;;;;;;;2.90;1.93;;;;;;;26.68;32.24;98499.34;6944986;28;20325;-77
2022/06/21 09:13:43;;;;;;;6.43;3.00;;;;;;;25.65;33.25;98493.22;6949693;28;20222;-77
2022/06/21 09:17:11;;;;;;;4.40;2.63;;;;;;;26.05;34.26;98481.25;6973904;28;20194;-77
2022/06/21 09:20:40;;;;;;;4.63;2.23;;;;;;;26.72;33.05;98516.91;6973263;28;20222;-76
2022/06/21 09:24:06;;;;;;;2.93;2.07;;;;;;;27.21;32.64;98522.25;6974711;28;20184;-77
2022/06/21 09:27:34;;;;;;;5.70;2.00;;;;;;;27.87;31.41;98507.31;6978251;28;20304;-77
2022/06/21 09:30:59;;;;;;;3.67;1.90;;;;;;;28.63;30.13;98478.75;6977840;28;20717;-76
2022/06/21 09:34:28;;;;;;;2.20;2.00;;;;;;;28.38;30.59;98477.66;6976027;28;20572;-79
2022/06/21 09:37:59;;;;;;;4.80;2.00;;;;;;;27.82;30.74;98494.44;6977905;28;20312;-77
2022/06/21 09:41:25;;;;;;;3.47;2.30;;;;;;;27.40;31.62;98484.06;6956947;28;20316;-78
2022/06/21 09:45:03;;;;;;;3.70;2.37;;;;;;;27.38;31.85;98496.59;6949404;28;20237;-78
2022/06/21 09:48:28;;;;;;;5.77;2.33;;;;;;;27.88;31.30;98509.75;6959423;28;20329;-77
2022/06/21 09:52:03;;;;;;;2.17;1.97;;;;;;;28.96;29.58;98502.88;6972935;28;20240;-78
2022/06/21 09:55:31;;;;;;;5.47;2.37;;;;;;;29.37;28.52;98508.56;6977565;28;20279;-79
2022/06/21 09:58:59;;;;;;;3.17;2.23;;;;;;;28.71;30.53;98498.16;6975541;28;20224;-77
2022/06/21 10:02:29;;;;;;;2.63;2.00;;;;;;;28.94;29.23;98510.69;6950619;28;20228;-77
2022/06/21 10:05:55;;;;;;;3.30;2.37;;;;;;;28.41;29.50;98477.00;6950623;28;20306;-78
2022/06/21 10:09:29;;;;;;;3.40;2.50;;;;;;;28.32;30.51;98478.94;6953737;28;20224;-77
2022/06/21 10:12:59;;;;;;;4.00;2.33;;;;;;;28.42;29.83;98486.16;6969229;28;20227;-78
2022/06/21 10:16:33;;;;;;;3.17;2.37;;;;;;;27.81;31.61;98483.66;6976405;28;20675;-78
2022/06/21 10:20:07;;;;;;;4.73;2.53;;;;;;;26.84;33.63;98467.34;6972781;28;20682;-78
2022/06/21 10:23:42;;;;;;;4.07;2.60;;;;;;;28.12;31.93;98476.00;6970322;28;20224;-79
2022/06/21 10:27:17;;;;;;;4.30;2.83;;;;;;;28.18;31.48;98481.06;6976599;28;20204;-80
2022/06/21 10:30:54;;;;;;;3.53;2.50;;;;;;;26.90;33.72;98487.41;6977381;28;20248;-77
2022/06/21 10:34:43;;;;;;;4.20;2.40;;;;;;;28.38;32.30;98477.66;6966224;28;20231;-78
2022/06/21 10:38:37;;;;;;;5.17;2.70;;;;;;;28.93;31.35;98461.88;6965907;28;20624;-79
2022/06/21 10:45:52;;;;;;;4.13;2.10;;;;;;;30.62;29.24;98438.81;6985300;28;20227;-78
2022/06/21 10:49:44;;;;;;;5.13;2.53;;;;;;;29.70;30.06;98437.31;6972348;28;20577;-78
2022/06/21 10:53:15;;;;;;;2.97;2.40;;;;;;;28.55;32.53;98424.13;6969107;28;20265;-78
2022/06/21 11:04:34;;;;;;;3.57;2.30;;;;;;;30.64;29.61;98394.72;6948833;28;20209;-77
2022/06/21 11:08:04;;;;;;;5.20;2.53;;;;;;;30.67;29.67;98369.03;6955952;28;20237;-77
2022/06/21 11:11:30;;;;;;;3.47;2.30;;;;;;;30.12;30.67;98386.13;6971502;28;20684;-77
2022/06/21 11:14:55;;;;;;;2.90;2.60;;;;;;;30.50;30.72;98377.56;6961172;28;20667;-77
2022/06/21 11:18:26;;;;;;;3.17;2.47;;;;;;;31.16;30.31;98370.66;6972106;28;20199;-79
2022/06/21 11:22:02;;;;;;;3.47;2.17;;;;;;;31.90;29.04;98371.84;6971089;28;20693;-78
2022/06/21 11:25:30;;;;;;;3.30;2.40;;;;;;;31.54;29.13;98377.50;6973577;28;20625;-77
2022/06/21 11:28:58;;;;;;;5.67;2.43;;;;;;;31.00;30.72;98337.16;6974836;28;20339;-77
2022/06/21 11:32:26;;;;;;;3.90;2.80;;;;;;;30.12;32.54;98347.19;6975290;28;20711;-77
2022/06/21 11:35:53;;;;;;;6.37;2.90;;;;;;;30.88;31.75;98367.78;6974616;28;20213;-77
2022/06/21 11:39:25;;;;;;;4.27;2.80;;;;;;;31.14;31.15;98359.88;6971097;28;20293;-77
2022/06/21 11:42:51;;;;;;;7.80;2.83;;;;;;;31.47;30.12;98359.75;6972229;28;20271;-77
2022/06/21 11:46:17;;;;;;;3.20;2.90;;;;;;;31.29;30.44;98361.97;6963858;28;20959;-77
2022/06/21 11:49:43;;;;;;;3.37;2.87;;;;;;;31.28;30.67;98345.63;6973873;28;20579;-77
2022/06/21 11:53:20;;;;;;;6.97;3.17;;;;;;;31.19;31.21;98340.16;6963439;28;20745;-78
2022/06/21 11:56:50;;;;;;;3.40;3.07;;;;;;;30.83;31.68;98347.72;6957112;28;20253;-77
2022/06/21 12:00:16;;;;;;;4.20;2.90;;;;;;;31.93;31.08;98337.69;6968358;28;20203;-77
2022/06/21 12:03:45;;;;;;;3.83;2.87;;;;;;;31.63;30.47;98322.44;6966038;28;20599;-77
2022/06/21 12:07:10;;;;;;;5.00;3.00;;;;;;;32.46;28.90;98333.56;6970633;28;20313;-77
2022/06/21 12:10:44;;;;;;;4.30;2.90;;;;;;;31.93;30.69;98314.53;6962111;28;20286;-77
2022/06/21 12:14:15;;;;;;;3.50;2.90;;;;;;;31.98;30.35;98315.13;6963628;28;20251;-77
2022/06/21 12:17:45;;;;;;;4.83;2.77;;;;;;;31.91;30.34;98328.03;6953296;28;20348;-77
2022/06/21 12:21:09;;;;;;;3.30;3.00;;;;;;;32.17;29.65;98322.78;6946955;28;20228;-78
2022/06/21 12:24:31;;;;;;;4.50;2.87;;;;;;;31.42;30.56;98319.00;6947544;28;20242;-77
2022/06/21 12:27:58;;;;;;;4.23;3.03;;;;;;;30.95;31.44;98331.00;6946336;28;20228;-77
2022/06/21 12:31:23;;;;;;;6.27;3.50;;;;;;;31.22;31.29;98319.97;6954736;28;20338;-77
2022/06/21 12:34:51;;;;;;;2.93;2.63;;;;;;;32.10;30.68;98298.31;6973681;28;20194;-77
2022/06/21 12:38:16;;;;;;;4.30;2.70;;;;;;;31.67;31.08;98298.22;6973067;28;20205;-77
2022/06/21 12:41:52;;;;;;;5.93;3.73;;;;;;;31.72;30.93;98292.44;6974767;28;20317;-77
2022/06/21 12:45:29;;;;;;;5.77;3.20;;;;;;;30.40;32.60;98275.03;6964347;28;20222;-77
2022/06/21 12:49:20;;;;;;;3.47;2.87;;;;;;;29.87;33.92;98292.63;6972674;28;20213;-77
2022/06/21 12:52:47;;;;;;;4.30;3.37;;;;;;;30.06;33.19;98292.09;6967024;28;20224;-77
2022/06/21 12:56:15;;;;;;;3.90;3.30;;;;;;;29.41;35.02;98281.75;6973197;28;20255;-77
2022/06/21 12:59:53;;;;;;;5.63;3.70;;;;;;;29.54;34.77;98244.56;6976347;28;20197;-77
2022/06/21 13:03:28;;;;;;;6.10;3.40;;;;;;;29.86;34.66;98251.28;6979079;28;20347;-77
2022/06/21 13:07:00;;;;;;;5.20;3.63;;;;;;;30.12;34.00;98238.72;6973588;28;20228;-77
2022/06/21 13:10:31;;;;;;;5.80;3.30;;;;;;;29.24;34.75;98228.31;6977952;28;20206;-77
2022/06/21 13:14:06;;;;;;;6.27;3.57;;;;;;;29.84;34.31;98196.00;6978773;28;20195;-77
2022/06/21 13:17:40;;;;;;;5.07;3.10;;;;;;;31.71;31.16;98204.38;6978231;28;20206;-77
2022/06/21 13:21:12;;;;;;;4.27;3.03;;;;;;;31.52;32.32;98226.53;6975078;28;20264;-77
2022/06/21 13:24:47;;;;;;;4.10;3.23;;;;;;;31.35;31.98;98218.47;6978089;28;20293;-77
2022/06/21 13:28:19;;;;;;;7.17;3.10;;;;;;;31.28;31.74;98223.84;6978373;28;20681;-78
2022/06/21 13:31:44;;;;;;;3.30;3.00;;;;;;;31.78;31.26;98231.69;6978559;28;20234;-77
2022/06/21 13:35:16;;;;;;;5.20;3.00;;;;;;;31.79;31.07;98228.50;6978267;28;20296;-77
2022/06/21 13:38:43;;;;;;;3.73;3.00;;;;;;;30.99;31.77;98192.66;6977440;28;20968;-78
2022/06/21 13:45:52;;;;;;;5.87;3.37;;;;;;;29.76;34.90;98202.50;6977572;28;20252;-78
2022/06/21 13:49:23;;;;;;;5.40;2.93;;;;;;;30.99;32.87;98217.72;6970436;28;20337;-77
2022/06/21 13:52:55;;;;;;;5.03;3.37;;;;;;;30.30;33.95;98231.00;6977808;28;20228;-77
2022/06/21 13:56:20;;;;;;;5.70;3.27;;;;;;;30.84;32.59;98224.84;6977315;28;20202;-78
2022/06/21 13:59:45;;;;;;;3.93;3.47;;;;;;;30.11;34.08;98216.81;6976845;28;20246;-78
2022/06/21 14:03:21;;;;;;;6.13;3.57;;;;;;;29.87;34.53;98212.03;6976885;28;20225;-78
2022/06/21 14:07:00;;;;;;;4.67;3.40;;;;;;;29.72;34.67;98196.00;6977134;28;20232;-78
2022/06/21 14:10:27;;;;;;;6.07;3.20;;;;;;;31.60;32.29;98194.91;6976321;28;20603;-78
2022/06/21 14:13:54;;;;;;;4.80;3.63;;;;;;;31.24;32.22;98200.63;6977165;28;20279;-77
2022/06/21 14:17:23;;;;;;;4.63;3.13;;;;;;;31.32;32.62;98173.78;6976953;28;20205;-78
2022/06/21 14:20:50;;;;;;;5.13;3.03;;;;;;;31.96;31.70;98179.97;6957645;28;20193;-78
2022/06/21 14:24:16;;;;;;;5.07;3.20;;;;;;;31.73;32.60;98176.16;6976952;28;20318;-78
2022/06/21 14:27:42;;;;;;;5.00;3.23;;;;;;;32.02;31.52;98187.69;6976440;28;20222;-77
2022/06/21 14:31:07;;;;;;;3.43;3.03;;;;;;;31.27;32.51;98172.09;6976452;28;20717;-78
2022/06/21 14:34:33;;;;;;;6.50;3.40;;;;;;;30.29;33.79;98180.13;6976873;28;20568;-78
2022/06/21 14:38:00;;;;;;;6.03;3.20;;;;;;;31.05;33.27;98178.16;6994488;28;20204;-77
2022/06/21 14:41:30;;;;;;;5.73;3.37;;;;;;;31.45;32.20;98170.59;6984397;28;20235;-77
2022/06/21 14:44:56;;;;;;;5.77;3.33;;;;;;;32.01;31.35;98162.97;6977214;28;20249;-78
2022/06/21 14:48:34;;;;;;;5.83;3.47;;;;;;;31.23;32.50;98154.44;6994730;28;20402;-78
2022/06/21 14:52:07;;;;;;;3.33;3.03;;;;;;;30.39;33.76;98120.41;6973809;28;20322;-78
2022/06/21 14:55:42;;;;;;;4.43;3.30;;;;;;;31.74;32.07;98125.63;6962814;28;20212;-77
2022/06/21 14:59:20;;;;;;;6.10;3.40;;;;;;;32.48;30.85;98119.91;6970532;28;20205;-78
2022/06/21 15:02:56;;;;;;;6.10;3.30;;;;;;;31.88;31.85;98128.78;6981600;28;20249;-77
2022/06/21 15:06:27;;;;;;;6.53;3.80;;;;;;;31.43;32.54;98130.31;6985880;28;20606;-78
2022/06/21 15:09:53;;;;;;;3.53;3.20;;;;;;;31.82;32.14;98121.03;6983241;28;20209;-78
2022/06/21 15:13:18;;;;;;;4.33;3.57;;;;;;;31.47;32.86;98115.31;6983898;28;20276;-78
2022/06/21 15:16:48;;;;;;;5.10;3.40;;;;;;;31.59;32.34;98117.19;6985953;28;20212;-78
2022/06/21 15:20:14;;;;;;;4.47;4.03;;;;;;;31.40;32.95;98128.22;6979600;28;20198;-78
2022/06/21 15:23:40;;;;;;;6.70;4.23;;;;;;;31.68;32.56;98099.16;6987126;28;20223;-79
2022/06/21 15:27:08;;;;;;;8.50;3.80;;;;;;;31.10;33.87;98113.03;6988501;28;20223;-77
2022/06/21 15:30:39;;;;;;;5.20;3.30;;;;;;;31.96;31.87;98127.78;6989379;28;20228;-79
2022/06/21 15:34:10;;;;;;;7.20;3.83;;;;;;;32.66;30.59;98142.66;6987873;28;20211;-78
2022/06/21 15:37:35;;;;;;;4.23;3.37;;;;;;;32.74;30.84;98122.91;6964394;28;20211;-80
2022/06/21 15:41:00;;;;;;;6.97;3.67;;;;;;;31.78;32.24;98142.44;6950648;28;20254;-80
2022/06/21 15:44:37;;;;;;;9.43;4.63;;;;;;;32.45;31.39;98115.06;6950704;28;20347;-79
2022/06/21 15:51:42;;;;;;;7.43;3.63;;;;;;;32.16;31.55;98120.28;6960559;28;20227;-78
2022/06/21 15:55:11;;;;;;;11.97;4.50;;;;;;;32.33;31.58;98109.59;6949186;28;20211;-78
2022/06/21 15:58:44;;;;;;;5.90;3.47;;;;;;;32.01;31.88;98096.03;6945753;28;20241;-79
2022/06/21 16:02:18;;;;;;;4.93;3.70;;;;;;;31.25;32.84;98123.44;6958097;28;20234;-78
2022/06/21 16:05:45;;;;;;;4.83;3.40;;;;;;;31.70;32.68;98094.03;6946788;28;20591;-77
2022/06/21 16:09:08;;;;;;;5.20;3.93;;;;;;;33.03;29.97;98069.28;6974188;28;20271;-78
2022/06/21 16:12:35;;;;;;;5.07;3.50;;;;;;;33.10;30.05;98077.81;6974759;28;20225;-78
2022/06/21 16:16:00;;;;;;;6.10;4.07;;;;;;;32.45;31.07;98073.19;6971979;28;20548;-78
2022/06/21 16:19:22;;;;;;;5.50;3.50;;;;;;;32.80;30.85;98081.56;6948606;28;20301;-78
2022/06/21 16:22:46;;;;;;;6.30;3.83;;;;;;;33.35;30.08;98081.09;6975031;28;20230;-78
2022/06/21 16:26:12;;;;;;;5.47;4.00;;;;;;;32.39;31.16;98077.44;6963919;28;20207;-78
2022/06/21 16:29:38;;;;;;;5.47;3.53;;;;;;;32.26;32.07;98091.88;6969272;28;20621;-78
2022/06/21 16:33:13;;;;;;;6.30;4.10;;;;;;;32.40;31.65;98098.59;6974598;28;20313;-78
2022/06/21 16:36:37;;;;;;;5.50;4.10;;;;;;;32.24;31.78;98105.34;6960974;28;20205;-77
2022/06/21 16:40:04;;;;;;;5.43;4.23;;;;;;;32.36;31.44;98099.69;6978141;28;20218;-77
2022/06/21 16:43:33;;;;;;;5.70;3.80;;;;;;;33.15;30.46;98102.66;6979464;28;20322;-77
2022/06/21 16:46:56;;;;;;;4.10;3.40;;;;;;;33.00;30.06;98097.94;6980056;28;20301;-78
2022/06/21 16:50:33;;;;;;;5.43;4.10;;;;;;;32.24;31.50;98106.19;6991765;28;20193;-77